createdAt,value
2023-05-19T00:01:25.091Z,100.00
2023-05-19T00:03:55.146Z,100.00
2023-05-19T00:06:27.534Z,100.00
2023-05-19T00:09:09.422Z,100.00
2023-05-19T00:11:39.194Z,100.00
2023-05-19T00:14:09.523Z,100.00
2023-05-19T00:16:38.127Z,100.00
2023-05-19T00:19:06.701Z,100.00
2023-05-19T00:21:34.466Z,100.00
2023-05-19T00:24:01.965Z,100.00
2023-05-19T00:26:29.586Z,100.00
2023-05-19T00:28:58.933Z,100.00
2023-05-19T00:31:26.545Z,100.00
2023-05-19T00:33:54.106Z,100.00
2023-05-19T00:36:21.935Z,100.00
2023-05-19T00:38:51.368Z,100.00
2023-05-19T00:41:18.919Z,100.00
2023-05-19T00:43:46.793Z,100.00
2023-05-19T00:46:14.310Z,100.00
2023-05-19T00:48:44.753Z,100.00
2023-05-19T00:51:16.849Z,100.00
2023-05-19T00:53:49.317Z,100.00
2023-05-19T00:56:18.467Z,100.00
2023-05-19T00:58:46.692Z,100.00
2023-05-19T01:01:17.231Z,100.00
2023-05-19T01:03:47.217Z,100.00
2023-05-19T01:06:15.347Z,100.00
2023-05-19T01:08:42.853Z,100.00
2023-05-19T01:11:10.872Z,100.00
2023-05-19T01:13:41.115Z,100.00
2023-05-19T01:16:18.976Z,100.00
2023-05-19T01:19:06.056Z,100.00
2023-05-19T01:22:01.182Z,100.00
2023-05-19T01:24:32.408Z,100.00
2023-05-19T01:27:32.178Z,100.00
2023-05-19T01:30:23.354Z,100.00
2023-05-19T01:32:53.960Z,100.00
2023-05-19T01:35:26.294Z,100.00
2023-05-19T01:37:56.744Z,100.00
2023-05-19T01:40:26.477Z,100.00
2023-05-19T01:42:57.824Z,100.00
2023-05-19T01:45:29.094Z,100.00
2023-05-19T01:47:59.435Z,100.00
2023-05-19T01:50:27.623Z,100.00
2023-05-19T01:52:55.711Z,100.00
2023-05-19T01:55:24.107Z,100.00
2023-05-19T01:58:33.035Z,100.00
2023-05-19T02:01:42.900Z,100.00
2023-05-19T02:04:28.552Z,100.00
2023-05-19T02:07:10.004Z,100.00
2023-05-19T02:10:06.665Z,100.00
2023-05-19T02:12:40.166Z,100.00
2023-05-19T02:15:12.180Z,100.00
2023-05-19T02:17:47.893Z,100.00
2023-05-19T02:20:16.988Z,100.00
2023-05-19T02:22:45.379Z,100.00
2023-05-19T02:25:14.235Z,100.00
2023-05-19T02:27:42.492Z,100.00
2023-05-19T02:30:10.693Z,100.00
2023-05-19T02:32:38.281Z,100.00
2023-05-19T02:35:06.451Z,100.00
2023-05-19T02:37:35.398Z,100.00
2023-05-19T02:40:02.984Z,100.00
2023-05-19T02:42:31.443Z,100.00
2023-05-19T02:45:00.564Z,100.00
2023-05-19T02:47:28.305Z,100.00
2023-05-19T02:49:55.936Z,100.00
2023-05-19T02:52:23.707Z,100.00
2023-05-19T02:54:51.484Z,100.00
2023-05-19T02:57:19.091Z,100.00
2023-05-19T02:59:47.056Z,100.00
2023-05-19T03:02:14.607Z,100.00
2023-05-19T03:04:43.140Z,100.00
2023-05-19T03:07:11.026Z,100.00
2023-05-19T03:09:38.582Z,100.00
2023-05-19T03:12:07.682Z,100.00
2023-05-19T03:14:37.743Z,100.00
2023-05-19T03:17:07.848Z,100.00
2023-05-19T03:19:36.144Z,100.00
2023-05-19T03:22:03.956Z,100.00
2023-05-19T03:24:31.681Z,100.00
2023-05-19T03:26:59.531Z,100.00
2023-05-19T03:29:27.114Z,100.00
2023-05-19T03:31:55.176Z,100.00
2023-05-19T03:34:23.017Z,100.00
2023-05-19T03:36:50.956Z,100.00
2023-05-19T03:39:18.552Z,100.00
2023-05-19T03:41:46.535Z,100.00
2023-05-19T03:44:14.123Z,100.00
2023-05-19T03:46:41.658Z,100.00
2023-05-19T03:49:09.937Z,100.00
2023-05-19T03:51:39.413Z,100.00
2023-05-19T03:54:07.295Z,100.00
2023-05-19T03:56:39.406Z,100.00
2023-05-19T03:59:10.488Z,100.00
2023-05-19T04:01:38.305Z,100.00
2023-05-19T04:04:06.181Z,100.00
2023-05-19T04:06:34.002Z,100.00
2023-05-19T04:09:02.711Z,100.00
2023-05-19T04:11:30.559Z,100.00
2023-05-19T04:13:58.689Z,100.00
2023-05-19T04:16:26.430Z,100.00
2023-05-19T04:18:54.365Z,100.00
2023-05-19T04:21:22.465Z,100.00
2023-05-19T04:23:50.024Z,100.00
2023-05-19T04:26:19.307Z,100.00
2023-05-19T04:28:48.313Z,100.00
2023-05-19T04:31:15.871Z,100.00
2023-05-19T04:33:43.960Z,100.00
2023-05-19T04:36:11.791Z,100.00
2023-05-19T04:38:40.303Z,100.00
2023-05-19T04:41:12.269Z,100.00
2023-05-19T04:43:41.837Z,100.00
2023-05-19T04:46:14.163Z,100.00
2023-05-19T04:48:42.821Z,100.00
2023-05-19T04:51:10.668Z,100.00
2023-05-19T04:53:40.263Z,100.00
2023-05-19T04:56:09.722Z,100.00
2023-05-19T04:58:39.705Z,100.00
2023-05-19T05:01:09.686Z,100.00
2023-05-19T05:03:37.889Z,100.00
2023-05-19T05:06:06.578Z,100.00
2023-05-19T05:08:34.255Z,100.00
2023-05-19T05:11:02.287Z,100.00
2023-05-19T05:13:30.083Z,100.00
2023-05-19T05:15:58.812Z,100.00
2023-05-19T05:18:27.186Z,100.00
2023-05-19T05:20:55.215Z,100.00
2023-05-19T05:23:23.551Z,100.00
2023-05-19T05:25:51.935Z,100.00
2023-05-19T05:28:19.611Z,100.00
2023-05-19T05:30:47.587Z,100.00
2023-05-19T05:33:15.547Z,100.00
2023-05-19T05:35:43.074Z,100.00
2023-05-19T05:38:11.601Z,100.00
2023-05-19T05:40:39.645Z,100.00
2023-05-19T05:43:08.212Z,100.00
2023-05-19T05:45:36.065Z,100.00
2023-05-19T05:48:04.741Z,100.00
2023-05-19T05:50:32.866Z,100.00
2023-05-19T05:53:01.915Z,100.00
2023-05-19T05:55:30.515Z,100.00
2023-05-19T05:58:02.197Z,100.00
2023-05-19T06:00:30.444Z,100.00
2023-05-19T06:02:59.276Z,100.00
2023-05-19T06:05:27.161Z,100.00
2023-05-19T06:07:55.404Z,100.00
2023-05-19T06:10:23.853Z,100.00
2023-05-19T06:12:51.877Z,100.00
2023-05-19T06:15:19.400Z,100.00
2023-05-19T06:17:47.333Z,100.00
2023-05-19T06:20:14.997Z,100.00
2023-05-19T06:22:42.616Z,100.00
2023-05-19T06:25:10.563Z,100.00
2023-05-19T06:27:38.143Z,100.00
2023-05-19T06:30:08.624Z,100.00
2023-05-19T06:32:36.998Z,100.00
2023-05-19T06:35:05.087Z,100.00
2023-05-19T06:37:32.722Z,99.71
2023-05-19T06:40:00.719Z,99.23
2023-05-19T06:42:28.336Z,98.60
2023-05-19T06:44:57.716Z,98.99
2023-05-19T06:47:27.530Z,97.96
2023-05-19T06:49:55.654Z,97.05
2023-05-19T06:52:23.843Z,97.38
2023-05-19T06:54:51.805Z,96.85
2023-05-19T06:57:19.328Z,97.57
2023-05-19T06:59:46.914Z,95.11
2023-05-19T07:02:15.169Z,96.42
2023-05-19T07:04:43.224Z,97.63
2023-05-19T07:07:12.258Z,97.34
2023-05-19T07:09:40.235Z,95.80
2023-05-19T07:12:08.683Z,95.98
2023-05-19T07:14:37.484Z,95.69
2023-05-19T07:17:05.455Z,96.33
2023-05-19T07:19:33.064Z,96.18
2023-05-19T07:22:00.811Z,95.74
2023-05-19T07:24:28.624Z,96.01
2023-05-19T07:26:57.416Z,94.13
2023-05-19T07:29:26.255Z,94.51
2023-05-19T07:31:57.870Z,93.17
2023-05-19T07:34:25.753Z,92.74
2023-05-19T07:36:53.380Z,94.82
2023-05-19T07:39:21.372Z,93.48
2023-05-19T07:41:52.815Z,91.71
2023-05-19T07:44:20.852Z,90.75
2023-05-19T07:46:48.410Z,91.88
2023-05-19T07:49:15.874Z,92.11
2023-05-19T07:51:43.666Z,92.50
2023-05-19T07:54:11.255Z,91.55
2023-05-19T07:56:38.811Z,89.34
2023-05-19T07:59:08.015Z,89.21
2023-05-19T08:01:35.762Z,90.57
2023-05-19T08:04:04.224Z,91.75
2023-05-19T08:06:32.113Z,90.23
2023-05-19T08:08:59.706Z,88.84
2023-05-19T08:11:27.651Z,87.48
2023-05-19T08:13:55.187Z,86.49
2023-05-19T08:16:22.875Z,87.71
2023-05-19T08:18:50.730Z,87.86
2023-05-19T08:21:18.340Z,87.98
2023-05-19T08:23:45.842Z,87.69
2023-05-19T08:26:13.865Z,86.33
2023-05-19T08:28:41.436Z,85.25
2023-05-19T08:31:09.136Z,86.94
2023-05-19T08:33:37.010Z,87.28
2023-05-19T08:36:05.066Z,84.38
2023-05-19T08:38:32.639Z,83.68
2023-05-19T08:41:00.520Z,85.73
2023-05-19T08:43:28.242Z,84.96
2023-05-19T08:45:55.941Z,84.61
2023-05-19T08:48:24.120Z,83.25
2023-05-19T08:51:18.049Z,85.07
2023-05-19T08:53:51.126Z,83.91
2023-05-19T08:56:22.631Z,82.83
2023-05-19T08:58:51.588Z,85.95
2023-05-19T09:01:20.459Z,82.89
2023-05-19T09:03:50.034Z,82.97
2023-05-19T09:06:18.225Z,83.66
2023-05-19T09:08:47.098Z,83.20
2023-05-19T09:11:14.813Z,82.56
2023-05-19T09:13:42.602Z,81.35
2023-05-19T09:16:11.836Z,82.74
2023-05-19T09:18:40.999Z,82.86
2023-05-19T09:21:11.179Z,83.27
2023-05-19T09:23:38.796Z,83.07
2023-05-19T09:26:07.703Z,81.93
2023-05-19T09:28:38.021Z,82.01
2023-05-19T09:31:10.913Z,81.04
2023-05-19T09:33:42.845Z,82.55
2023-05-19T09:36:12.589Z,81.98
2023-05-19T09:38:40.652Z,82.15
2023-05-19T09:41:09.280Z,80.44
2023-05-19T09:43:36.944Z,80.32
2023-05-19T09:46:12.162Z,79.10
2023-05-19T09:48:42.554Z,79.37
2023-05-19T09:51:11.027Z,78.14
2023-05-19T09:53:39.166Z,78.93
2023-05-19T09:56:08.838Z,78.62
2023-05-19T09:58:37.519Z,79.75
2023-05-19T10:01:05.708Z,80.07
2023-05-19T10:03:34.243Z,78.59
2023-05-19T10:06:04.045Z,78.69
2023-05-19T10:08:33.591Z,77.49
2023-05-19T10:11:01.921Z,76.79
2023-05-19T10:13:30.751Z,76.79
2023-05-19T10:16:00.039Z,76.96
2023-05-19T10:18:29.672Z,78.77
2023-05-19T10:20:58.278Z,79.13
2023-05-19T10:23:26.914Z,78.46
2023-05-19T10:25:59.098Z,78.68
2023-05-19T10:28:33.666Z,80.25
2023-05-19T10:31:05.071Z,80.94
2023-05-19T10:33:59.664Z,81.98
2023-05-19T10:36:31.094Z,82.44
2023-05-19T10:39:16.697Z,81.89
2023-05-19T10:42:03.759Z,83.00
2023-05-19T10:44:34.200Z,82.18
2023-05-19T10:47:02.369Z,82.44
2023-05-19T10:49:35.817Z,84.06
2023-05-19T10:52:04.302Z,83.47
2023-05-19T10:54:47.395Z,82.17
2023-05-19T10:57:19.238Z,83.21
2023-05-19T10:59:47.293Z,81.92
2023-05-19T11:02:42.428Z,80.93
2023-05-19T11:05:20.401Z,81.08
2023-05-19T11:08:06.166Z,80.26
2023-05-19T11:10:34.197Z,79.65
2023-05-19T11:13:06.135Z,78.63
2023-05-19T11:15:39.947Z,78.12
2023-05-19T11:18:07.964Z,77.79
2023-05-19T11:20:39.191Z,76.67
2023-05-19T11:23:08.894Z,75.68
2023-05-19T11:25:44.874Z,77.29
2023-05-19T11:28:13.689Z,77.08
2023-05-19T11:30:43.704Z,77.18
2023-05-19T11:33:13.503Z,76.85
2023-05-19T11:35:42.852Z,76.96
2023-05-19T11:38:11.308Z,73.80
2023-05-19T11:40:39.360Z,72.97
2023-05-19T11:43:07.322Z,73.81
2023-05-19T11:45:35.341Z,74.12
2023-05-19T11:48:03.873Z,74.70
2023-05-19T11:50:32.769Z,76.22
2023-05-19T11:53:01.382Z,74.03
2023-05-19T11:55:29.647Z,73.39
2023-05-19T11:58:05.105Z,71.96
2023-05-19T12:00:41.649Z,71.81
2023-05-19T12:03:10.565Z,71.64
2023-05-19T12:05:44.919Z,70.66
2023-05-19T12:08:13.070Z,73.31
2023-05-19T12:10:41.096Z,70.78
2023-05-19T12:13:09.992Z,70.98
2023-05-19T12:15:39.134Z,70.00
2023-05-19T12:18:07.378Z,71.50
2023-05-19T12:20:36.161Z,72.77
2023-05-19T12:23:05.152Z,76.25
2023-05-19T12:25:33.149Z,75.14
2023-05-19T12:28:05.111Z,73.34
2023-05-19T12:30:34.709Z,73.81
2023-05-19T12:33:03.185Z,73.21
2023-05-19T12:35:36.321Z,70.45
2023-05-19T12:38:05.128Z,68.93
2023-05-19T12:40:36.623Z,70.15
2023-05-19T12:43:05.460Z,69.76
2023-05-19T12:45:37.295Z,69.05
2023-05-19T12:48:06.740Z,68.72
2023-05-19T12:50:35.024Z,69.44
2023-05-19T12:53:02.933Z,69.32
2023-05-19T12:55:30.838Z,67.90
2023-05-19T12:57:58.703Z,68.75
2023-05-19T13:00:28.970Z,68.23
2023-05-19T13:03:05.830Z,64.85
2023-05-19T13:05:37.187Z,65.99
2023-05-19T13:08:09.858Z,64.13
2023-05-19T13:10:39.004Z,65.09
2023-05-19T13:13:07.774Z,66.04
2023-05-19T13:15:38.730Z,64.69
2023-05-19T13:18:09.120Z,65.62
2023-05-19T13:20:38.854Z,65.33
2023-05-19T13:23:06.840Z,64.79
2023-05-19T13:25:34.611Z,63.52
2023-05-19T13:28:05.676Z,65.74
2023-05-19T13:30:38.620Z,65.43
2023-05-19T13:33:06.776Z,66.51
2023-05-19T13:35:37.598Z,62.45
2023-05-19T13:38:12.576Z,62.82
2023-05-19T13:40:40.644Z,61.02
2023-05-19T13:43:09.080Z,60.76
2023-05-19T13:45:36.987Z,63.64
2023-05-19T13:48:06.937Z,63.51
2023-05-19T13:50:34.747Z,61.95
2023-05-19T13:53:02.298Z,61.00
2023-05-19T13:55:29.867Z,61.35
2023-05-19T13:57:58.190Z,61.68
2023-05-19T14:00:25.892Z,63.17
2023-05-19T14:02:53.703Z,61.95
2023-05-19T14:05:21.323Z,64.06
2023-05-19T14:07:48.824Z,62.40
2023-05-19T14:10:16.640Z,63.79
2023-05-19T14:13:02.419Z,60.68
2023-05-19T14:15:37.831Z,60.72
2023-05-19T14:18:06.855Z,59.89
2023-05-19T14:20:35.165Z,62.60
2023-05-19T14:23:03.096Z,63.61
2023-05-19T14:25:30.737Z,64.97
2023-05-19T14:27:58.608Z,63.45
2023-05-19T14:30:26.153Z,62.72
2023-05-19T14:32:53.892Z,61.98
2023-05-19T14:35:22.743Z,60.30
2023-05-19T14:37:51.257Z,60.74
2023-05-19T14:40:19.016Z,60.38
2023-05-19T14:42:46.819Z,60.10
2023-05-19T14:45:15.049Z,59.66
2023-05-19T14:47:42.608Z,60.53
2023-05-19T14:50:11.522Z,59.81
2023-05-19T14:52:39.181Z,60.56
2023-05-19T14:55:07.156Z,59.83
2023-05-19T14:57:34.913Z,59.29
2023-05-19T15:00:02.405Z,59.20
2023-05-19T15:02:30.162Z,57.88
2023-05-19T15:04:58.000Z,58.07
2023-05-19T15:07:25.502Z,61.68
2023-05-19T15:09:53.559Z,61.59
2023-05-19T15:12:21.333Z,62.00
2023-05-19T15:14:48.822Z,62.45
2023-05-19T15:17:16.434Z,64.75
2023-05-19T15:19:44.553Z,64.21
2023-05-19T15:22:12.071Z,64.15
2023-05-19T15:24:41.188Z,60.91
2023-05-19T15:27:09.180Z,61.82
2023-05-19T15:29:36.858Z,61.74
2023-05-19T15:32:04.788Z,61.18
2023-05-19T15:34:32.837Z,62.28
2023-05-19T15:37:00.440Z,62.91
2023-05-19T15:39:30.406Z,63.44
2023-05-19T15:41:58.095Z,63.42
2023-05-19T15:44:28.232Z,65.33
2023-05-19T15:46:56.439Z,66.62
2023-05-19T15:49:25.287Z,68.07
2023-05-19T15:51:52.773Z,69.38
2023-05-19T15:54:20.460Z,71.09
2023-05-19T15:56:48.222Z,71.48
2023-05-19T15:59:15.823Z,72.54
2023-05-19T16:01:43.368Z,73.62
2023-05-19T16:04:11.273Z,74.63
2023-05-19T16:06:38.930Z,75.29
2023-05-19T16:09:06.397Z,72.94
2023-05-19T16:11:34.302Z,72.96
2023-05-19T16:14:01.746Z,74.20
2023-05-19T16:16:29.305Z,75.29
2023-05-19T16:18:57.103Z,77.09
2023-05-19T16:21:24.605Z,78.05
2023-05-19T16:23:52.190Z,78.41
2023-05-19T16:26:20.214Z,79.01
2023-05-19T16:28:47.789Z,80.35
2023-05-19T16:31:15.274Z,80.15
2023-05-19T16:33:43.052Z,79.99
2023-05-19T16:36:10.856Z,78.70
2023-05-19T16:38:38.326Z,76.80
2023-05-19T16:41:06.944Z,74.92
2023-05-19T16:43:35.967Z,75.93
2023-05-19T16:46:04.610Z,76.79
2023-05-19T16:48:32.468Z,78.74
2023-05-19T16:51:00.044Z,79.89
2023-05-19T16:53:27.683Z,78.83
2023-05-19T16:55:55.565Z,78.06
2023-05-19T16:58:23.064Z,80.02
2023-05-19T17:00:53.408Z,80.05
2023-05-19T17:03:21.403Z,79.26
2023-05-19T17:05:48.925Z,81.67
2023-05-19T17:08:16.644Z,80.21
2023-05-19T17:10:44.923Z,82.03
2023-05-19T17:13:12.939Z,81.32
2023-05-19T17:15:42.863Z,82.34
2023-05-19T17:18:12.687Z,81.09
2023-05-19T17:20:40.342Z,80.98
2023-05-19T17:23:08.283Z,80.82
2023-05-19T17:25:36.318Z,80.80
2023-05-19T17:28:03.922Z,80.93
2023-05-19T17:30:31.676Z,81.24
2023-05-19T17:32:59.726Z,82.27
2023-05-19T17:35:28.598Z,81.74
2023-05-19T17:37:57.910Z,81.23
2023-05-19T17:40:26.021Z,80.47
2023-05-19T17:42:53.539Z,80.75
2023-05-19T17:45:21.138Z,80.91
2023-05-19T17:47:48.926Z,81.50
2023-05-19T17:50:16.607Z,82.73
2023-05-19T17:52:44.541Z,82.74
2023-05-19T17:55:12.864Z,82.15
2023-05-19T17:57:42.930Z,81.82
2023-05-19T18:00:11.384Z,82.42
2023-05-19T18:02:39.799Z,83.22
2023-05-19T18:05:08.346Z,83.54
2023-05-19T18:07:39.461Z,83.81
2023-05-19T18:10:08.951Z,85.24
2023-05-19T18:12:36.576Z,85.49
2023-05-19T18:15:04.450Z,85.47
2023-05-19T18:17:32.505Z,85.44
2023-05-19T18:20:00.061Z,84.86
2023-05-19T18:22:27.510Z,85.50
2023-05-19T18:24:55.412Z,85.54
2023-05-19T18:27:22.925Z,85.03
2023-05-19T18:29:50.344Z,84.60
2023-05-19T18:32:18.158Z,84.53
2023-05-19T18:34:45.820Z,84.79
2023-05-19T18:37:13.252Z,85.53
2023-05-19T18:39:41.150Z,85.95
2023-05-19T18:42:08.800Z,85.09
2023-05-19T18:44:36.379Z,85.37
2023-05-19T18:47:04.256Z,87.25
2023-05-19T18:49:31.946Z,89.11
2023-05-19T18:51:59.458Z,89.21
2023-05-19T18:54:27.252Z,88.87
2023-05-19T18:56:54.867Z,88.97
2023-05-19T18:59:23.724Z,90.02
2023-05-19T19:01:54.991Z,90.48
2023-05-19T19:04:22.582Z,91.14
2023-05-19T19:06:51.247Z,91.83
2023-05-19T19:09:19.265Z,93.92
2023-05-19T19:11:46.839Z,95.09
2023-05-19T19:14:14.380Z,95.79
2023-05-19T19:16:42.172Z,96.28
2023-05-19T19:19:10.200Z,96.50
2023-05-19T19:21:37.814Z,97.19
2023-05-19T19:24:05.894Z,97.06
2023-05-19T19:26:33.781Z,97.35
2023-05-19T19:29:01.302Z,98.20
2023-05-19T19:31:29.128Z,98.01
2023-05-19T19:34:03.583Z,96.83
2023-05-19T19:36:32.066Z,96.20
2023-05-19T19:38:59.673Z,96.19
2023-05-19T19:41:29.710Z,96.22
2023-05-19T19:43:57.548Z,96.11
2023-05-19T19:46:25.148Z,96.70
2023-05-19T19:48:52.819Z,97.25
2023-05-19T19:51:20.608Z,97.62
2023-05-19T19:53:48.091Z,97.69
2023-05-19T19:56:15.606Z,98.10
2023-05-19T19:58:43.572Z,98.43
2023-05-19T20:01:11.316Z,99.64
2023-05-19T20:03:39.188Z,100.00
2023-05-19T20:06:07.672Z,100.00
2023-05-19T20:08:35.137Z,100.00
2023-05-19T20:11:02.942Z,100.00
2023-05-19T20:13:32.083Z,100.00
2023-05-19T20:16:01.016Z,100.00
2023-05-19T20:18:29.981Z,100.00
2023-05-19T20:20:57.640Z,100.00
2023-05-19T20:23:25.213Z,100.00
2023-05-19T20:26:10.305Z,100.00
2023-05-19T20:28:39.762Z,100.00
2023-05-19T20:31:07.716Z,100.00
2023-05-19T20:33:35.345Z,100.00
2023-05-19T20:36:02.873Z,100.00
2023-05-19T20:38:30.630Z,100.00
2023-05-19T20:40:58.140Z,100.00
2023-05-19T20:43:25.642Z,100.00
2023-05-19T20:45:53.435Z,100.00
2023-05-19T20:48:20.997Z,100.00
2023-05-19T20:50:48.515Z,100.00
2023-05-19T20:53:16.277Z,100.00
2023-05-19T20:55:47.044Z,100.00
2023-05-19T20:58:14.705Z,100.00
2023-05-19T21:00:42.474Z,100.00
2023-05-19T21:03:10.008Z,100.00
2023-05-19T21:05:37.615Z,100.00
2023-05-19T21:08:05.523Z,100.00
2023-05-19T21:10:33.135Z,100.00
2023-05-19T21:13:00.924Z,100.00
2023-05-19T21:15:28.740Z,100.00
2023-05-19T21:17:56.282Z,100.00
2023-05-19T21:20:23.990Z,100.00
2023-05-19T21:22:51.889Z,100.00
2023-05-19T21:25:19.352Z,100.00
2023-05-19T21:27:47.509Z,100.00
2023-05-19T21:30:15.490Z,100.00
2023-05-19T21:32:43.215Z,100.00
2023-05-19T21:35:10.813Z,100.00
2023-05-19T21:37:38.509Z,100.00
2023-05-19T21:40:08.073Z,100.00
2023-05-19T21:42:35.894Z,100.00
2023-05-19T21:45:04.017Z,100.00
2023-05-19T21:47:31.824Z,100.00
2023-05-19T21:49:59.315Z,100.00
2023-05-19T21:52:27.123Z,100.00
2023-05-19T21:54:56.131Z,100.00
2023-05-19T21:57:23.619Z,100.00
2023-05-19T21:59:51.522Z,100.00
2023-05-19T22:02:18.954Z,100.00
2023-05-19T22:04:46.733Z,100.00
2023-05-19T22:07:14.235Z,100.00
2023-05-19T22:09:41.704Z,100.00
2023-05-19T22:12:09.560Z,100.00
2023-05-19T22:14:37.037Z,100.00
2023-05-19T22:17:04.768Z,100.00
2023-05-19T22:19:32.691Z,100.00
2023-05-19T22:22:12.718Z,100.00
2023-05-19T22:24:41.554Z,100.00
2023-05-19T22:27:09.048Z,100.00
2023-05-19T22:29:38.714Z,100.00
2023-05-19T22:32:11.757Z,100.00
2023-05-19T22:34:39.579Z,100.00
2023-05-19T22:37:07.405Z,100.00
2023-05-19T22:39:34.918Z,100.00
2023-05-19T22:42:02.671Z,100.00
2023-05-19T22:44:30.546Z,100.00
2023-05-19T22:46:58.028Z,100.00
2023-05-19T22:49:27.369Z,100.00
2023-05-19T22:51:55.192Z,100.00
2023-05-19T22:54:22.715Z,100.00
2023-05-19T22:56:50.348Z,100.00
2023-05-19T22:59:18.257Z,100.00
2023-05-19T23:01:46.813Z,100.00
2023-05-19T23:04:14.740Z,100.00
2023-05-19T23:06:42.653Z,100.00
2023-05-19T23:09:10.152Z,100.00
2023-05-19T23:11:37.642Z,100.00
2023-05-19T23:14:05.692Z,100.00
2023-05-19T23:16:33.283Z,100.00
2023-05-19T23:19:01.022Z,100.00
2023-05-19T23:21:30.303Z,100.00
2023-05-19T23:23:57.895Z,100.00
2023-05-19T23:26:26.378Z,100.00
2023-05-19T23:28:54.183Z,100.00
2023-05-19T23:31:21.772Z,100.00
2023-05-19T23:33:49.454Z,100.00
2023-05-19T23:36:17.851Z,100.00
2023-05-19T23:38:45.624Z,100.00
2023-05-19T23:41:13.213Z,100.00
2023-05-19T23:43:41.132Z,100.00
2023-05-19T23:46:08.796Z,100.00
2023-05-19T23:48:36.714Z,100.00
2023-05-19T23:51:04.711Z,100.00
2023-05-19T23:53:32.289Z,100.00
2023-05-19T23:55:59.843Z,100.00
2023-05-19T23:58:27.824Z,100.00
